MMRX

Details ICAO MMRX (REX)
Name GENERAL LUCIO BLANCO INTL
Region Mexico
Timezone America/Matamoros (UTC-5.0)
Plans Departing 11
Arriving 23
Stats Elevation 139 ft / 42 m (AMSL)
Location 26.008907° -98.228514°
Runways 1
Magnetic Variation 4.077° E
Sunrise 2018-05-23 11:44:46 UTC / 2018-05-23 06:44:46 Local
Sunset 2018-05-24 01:17:28 UTC / 2018-05-23 20:17:28 Local
Advertisement - Login to hide

Runways

ID Width Length Bearing (true) Bearing (mag) Surface Threshold Offset Overrun Length
13 148 ft / 45 m 6,242 ft / 1,903 m 141.04° 136.96° Asphalt 0 ft / 0 m 200 ft / 61 m
31 148 ft / 45 m 6,242 ft / 1,903 m 321.05° 316.97° Asphalt 0 ft / 0 m 200 ft / 61 m

Map

Weather


0- 5 10 15 20 25 30 35+ Temperature / ° C

Clouds and Precipitation
Forecast for 2018-05-23 18:00 UTC. Updated 4 hours ago

Ground ~20,000 ft ~40,000 ft Winds

METAR

MMRX 232049Z 12010KT 8SM SCT040 32/19 A2991 RMK SLP122 57016 904 8/100 HZY FU

TAF

TAF MMRX 231720Z 2318/2418 14015KT P6SM SCT020 BECMG 2401/2402 00000KT FM241000 00000KT 3SM BR BKN010 FM241500 15010KT 4SM HZ SCT015

Frequencies

Approach 118.80 MHz REYNOSA APP/TWR
Warning: Do not use this data for real-world aviation or navigation. No guarantee of current accuracy is given.